createdAt,value
2024-02-02T00:00:47.151Z,1.50
2024-02-02T00:03:14.056Z,1.60
2024-02-02T00:05:40.849Z,1.40
2024-02-02T00:08:07.901Z,1.50
2024-02-02T00:10:34.751Z,1.23
2024-02-02T00:13:01.418Z,1.00
2024-02-02T00:15:28.163Z,2.20
2024-02-02T00:17:55.032Z,1.15
2024-02-02T00:20:21.852Z,1.45
2024-02-02T00:22:48.618Z,1.23
2024-02-02T00:25:15.366Z,1.33
2024-02-02T00:27:42.007Z,2.17
2024-02-02T00:30:09.267Z,1.23
2024-02-02T00:32:35.965Z,1.17
2024-02-02T00:35:03.064Z,1.05
2024-02-02T00:37:29.854Z,1.30
2024-02-02T00:39:56.521Z,1.08
2024-02-02T00:42:23.226Z,1.55
2024-02-02T00:44:49.946Z,1.20
2024-02-02T00:47:16.653Z,1.10
2024-02-02T00:49:43.496Z,1.67
2024-02-02T00:52:10.347Z,1.50
2024-02-02T00:54:37.093Z,1.80
2024-02-02T00:57:04.173Z,1.63
2024-02-02T00:59:30.876Z,2.40
2024-02-02T01:01:57.640Z,1.58
2024-02-02T01:04:24.326Z,1.20
2024-02-02T01:06:51.157Z,1.00
2024-02-02T01:09:18.001Z,1.23
2024-02-02T01:11:44.844Z,1.40
2024-02-02T01:14:11.719Z,1.90
2024-02-02T01:16:38.416Z,1.65
2024-02-02T01:19:05.473Z,1.15
2024-02-02T01:21:32.315Z,1.30
2024-02-02T01:24:00.280Z,1.33
2024-02-02T01:26:26.973Z,1.30
2024-02-02T01:28:53.628Z,1.48
2024-02-02T01:31:20.272Z,1.45
2024-02-02T01:33:47.080Z,1.17
2024-02-02T01:36:13.845Z,1.42
2024-02-02T01:38:40.602Z,1.17
2024-02-02T01:41:07.246Z,1.52
2024-02-02T01:43:33.920Z,2.35
2024-02-02T01:46:00.585Z,1.60
2024-02-02T01:48:27.796Z,1.38
2024-02-02T01:50:54.889Z,1.05
2024-02-02T01:53:21.926Z,1.23
2024-02-02T01:55:48.631Z,1.38
2024-02-02T01:58:15.502Z,1.08
2024-02-02T02:00:42.619Z,0.98
2024-02-02T02:03:09.475Z,1.50
2024-02-02T02:05:37.279Z,1.60
2024-02-02T02:08:04.158Z,1.02
2024-02-02T02:10:31.046Z,1.15
2024-02-02T02:12:58.293Z,0.98
2024-02-02T02:17:55.171Z,0.73
2024-02-02T02:20:23.669Z,1.50
2024-02-02T02:22:50.464Z,1.80
2024-02-02T02:25:17.224Z,0.95
2024-02-02T02:27:44.255Z,1.10
2024-02-02T02:30:11.579Z,1.67
2024-02-02T02:35:05.243Z,1.33
2024-02-02T02:37:31.961Z,1.40
2024-02-02T02:39:59.167Z,1.60
2024-02-02T02:42:25.946Z,0.93
2024-02-02T02:44:52.712Z,1.45
2024-02-02T02:47:20.041Z,1.40
2024-02-02T02:52:13.296Z,1.27
2024-02-02T02:54:40.043Z,1.10
2024-02-02T02:57:06.710Z,1.30
2024-02-02T02:59:33.697Z,1.70
2024-02-02T03:02:00.424Z,1.50
2024-02-02T03:04:27.326Z,1.45
2024-02-02T03:06:54.103Z,1.52
2024-02-02T03:09:20.899Z,1.25
2024-02-02T03:11:47.654Z,1.48
2024-02-02T03:14:14.977Z,1.80
2024-02-02T03:19:08.457Z,1.60
2024-02-02T03:21:36.351Z,1.02
2024-02-02T03:24:03.501Z,2.13
2024-02-02T03:26:30.292Z,1.73
2024-02-02T03:28:58.181Z,2.20
2024-02-02T03:31:24.905Z,1.48
2024-02-02T03:33:51.780Z,1.83
2024-02-02T03:36:18.582Z,1.50
2024-02-02T03:38:45.249Z,1.33
2024-02-02T03:41:11.888Z,1.08
2024-02-02T03:43:38.542Z,1.60
2024-02-02T03:46:05.431Z,1.88
2024-02-02T03:48:32.205Z,1.80
2024-02-02T03:50:58.953Z,1.05
2024-02-02T03:53:25.630Z,1.75
2024-02-02T03:55:52.272Z,1.65
2024-02-02T03:58:18.924Z,1.38
2024-02-02T04:00:46.601Z,1.67
2024-02-02T04:03:13.476Z,1.67
2024-02-02T04:05:41.057Z,1.50
2024-02-02T04:08:08.334Z,1.48
2024-02-02T04:10:35.064Z,1.65
2024-02-02T04:13:03.454Z,2.10
2024-02-02T04:15:33.122Z,1.85
2024-02-02T04:18:00.619Z,1.10
2024-02-02T04:20:27.524Z,1.52
2024-02-02T04:22:54.237Z,1.10
2024-02-02T04:25:20.909Z,1.80
2024-02-02T04:27:47.615Z,0.90
2024-02-02T04:30:14.660Z,1.33
2024-02-02T04:32:42.354Z,1.17
2024-02-02T04:35:09.124Z,1.33
2024-02-02T04:37:35.794Z,1.70
2024-02-02T04:40:02.576Z,1.13
2024-02-02T04:42:29.347Z,1.00
2024-02-02T04:44:56.237Z,1.50
2024-02-02T04:47:23.765Z,1.70
2024-02-02T04:49:50.675Z,1.23
2024-02-02T04:52:17.407Z,1.15
2024-02-02T04:54:44.142Z,1.35
2024-02-02T04:57:10.813Z,1.50
2024-02-02T04:59:38.526Z,2.47
2024-02-02T05:02:06.617Z,1.02
2024-02-02T05:04:34.002Z,1.10
2024-02-02T05:09:27.568Z,1.45
2024-02-02T05:11:54.251Z,1.33
2024-02-02T05:14:20.916Z,1.33
2024-02-02T05:16:47.648Z,1.25
2024-02-02T05:19:14.448Z,1.38
2024-02-02T05:21:41.212Z,1.77
2024-02-02T05:24:20.498Z,1.25
2024-02-02T05:26:54.672Z,1.08
2024-02-02T05:29:21.338Z,1.50
2024-02-02T05:31:47.974Z,1.27
2024-02-02T05:34:14.969Z,1.10
2024-02-02T05:36:41.695Z,1.17
2024-02-02T05:39:10.099Z,1.38
2024-02-02T05:41:36.792Z,1.95
2024-02-02T05:44:03.615Z,1.15
2024-02-02T05:46:30.293Z,1.05
2024-02-02T05:48:57.371Z,0.80
2024-02-02T05:51:24.187Z,1.58
2024-02-02T05:53:50.907Z,1.17
2024-02-02T05:56:17.579Z,1.63
2024-02-02T05:58:44.229Z,1.00
2024-02-02T06:01:10.941Z,2.03
2024-02-02T06:03:37.795Z,1.00
2024-02-02T06:06:04.761Z,1.08
2024-02-02T06:08:31.475Z,1.80
2024-02-02T06:10:58.124Z,1.20
2024-02-02T06:13:24.789Z,1.70
2024-02-02T06:15:51.428Z,1.00
2024-02-02T06:18:20.790Z,1.58
2024-02-02T06:20:47.690Z,1.80
2024-02-02T06:23:14.432Z,1.02
2024-02-02T06:25:41.553Z,1.13
2024-02-02T06:28:09.485Z,1.33
2024-02-02T06:30:36.284Z,1.42
2024-02-02T06:33:03.113Z,1.40
2024-02-02T06:35:31.394Z,1.40
2024-02-02T06:37:59.074Z,1.10
2024-02-02T06:40:25.849Z,1.30
2024-02-02T06:42:52.561Z,1.27
2024-02-02T06:45:19.326Z,1.52
2024-02-02T06:47:46.053Z,1.27
2024-02-02T06:50:12.715Z,0.85
2024-02-02T06:52:39.355Z,1.30
2024-02-02T06:55:06.310Z,0.90
2024-02-02T06:57:33.474Z,0.98
2024-02-02T07:00:01.556Z,1.10
2024-02-02T07:02:34.170Z,1.38
2024-02-02T07:05:01.853Z,1.00
2024-02-02T07:07:28.824Z,1.75
2024-02-02T07:09:59.100Z,1.60
2024-02-02T07:12:34.866Z,1.75
2024-02-02T07:15:05.742Z,0.80
2024-02-02T07:17:38.726Z,1.35
2024-02-02T07:20:11.200Z,1.27
2024-02-02T07:22:44.017Z,1.83
2024-02-02T07:25:18.637Z,2.58
2024-02-02T07:27:52.667Z,1.88
2024-02-02T07:30:45.364Z,1.75
2024-02-02T07:33:25.676Z,1.52
2024-02-02T07:35:54.742Z,1.95
2024-02-02T07:38:43.260Z,1.73
2024-02-02T07:41:11.987Z,1.63
2024-02-02T07:43:38.697Z,1.52
2024-02-02T07:46:10.521Z,1.42
2024-02-02T07:48:40.195Z,1.98
2024-02-02T07:51:08.347Z,1.80
2024-02-02T07:53:35.696Z,1.88
2024-02-02T07:58:29.333Z,2.25
2024-02-02T08:00:56.108Z,1.95
2024-02-02T08:03:23.143Z,2.25
2024-02-02T08:05:49.893Z,2.30
2024-02-02T08:08:16.610Z,2.50
2024-02-02T08:10:44.248Z,2.00
2024-02-02T08:13:15.436Z,2.25
2024-02-02T08:15:42.414Z,1.90
2024-02-02T08:18:10.341Z,1.88
2024-02-02T08:20:37.555Z,2.08
2024-02-02T08:23:05.791Z,1.40
2024-02-02T08:25:32.587Z,2.00
2024-02-02T08:27:59.505Z,2.28
2024-02-02T08:30:26.294Z,2.30
2024-02-02T08:32:53.306Z,2.10
2024-02-02T08:35:24.362Z,1.88
2024-02-02T08:37:58.978Z,1.80
2024-02-02T08:40:41.010Z,1.48
2024-02-02T08:43:18.924Z,1.60
2024-02-02T08:45:57.598Z,2.10
2024-02-02T08:48:33.996Z,1.92
2024-02-02T08:51:01.993Z,2.40
2024-02-02T08:53:30.890Z,2.17
2024-02-02T08:56:02.352Z,2.03
2024-02-02T08:58:36.237Z,1.00
2024-02-02T09:01:07.124Z,1.50
2024-02-02T09:03:45.828Z,2.17
2024-02-02T09:06:45.873Z,1.42
2024-02-02T09:09:16.040Z,1.23
2024-02-02T09:11:48.766Z,1.83
2024-02-02T09:14:19.131Z,1.55
2024-02-02T09:16:49.241Z,1.38
2024-02-02T09:19:32.195Z,1.50
2024-02-02T09:22:02.578Z,1.25
2024-02-02T09:24:29.391Z,1.27
2024-02-02T09:26:58.990Z,1.25
2024-02-02T09:29:25.975Z,1.75
2024-02-02T09:31:52.609Z,1.40
2024-02-02T09:34:28.834Z,1.55
2024-02-02T09:36:55.695Z,1.98
2024-02-02T09:39:55.403Z,1.60
2024-02-02T09:42:51.299Z,1.83
2024-02-02T09:45:32.184Z,1.15
2024-02-02T09:48:07.092Z,1.20
2024-02-02T09:50:51.730Z,1.67
2024-02-02T09:53:40.252Z,1.45
2024-02-02T09:56:43.259Z,1.20
2024-02-02T09:59:18.951Z,1.80
2024-02-02T10:01:58.056Z,1.15
2024-02-02T10:04:36.730Z,1.42
2024-02-02T10:07:03.663Z,1.33
2024-02-02T10:09:48.920Z,1.80
2024-02-02T10:12:41.826Z,1.40
2024-02-02T10:15:23.842Z,1.02
2024-02-02T10:18:11.541Z,0.82
2024-02-02T10:21:12.362Z,1.38
2024-02-02T10:23:49.581Z,1.33
2024-02-02T10:26:41.247Z,1.00
2024-02-02T10:29:07.847Z,1.20
2024-02-02T10:31:58.465Z,1.05
2024-02-02T10:34:54.869Z,1.55
2024-02-02T10:37:38.718Z,0.77
2024-02-02T10:40:22.586Z,1.25
2024-02-02T10:43:04.550Z,1.85
2024-02-02T10:45:41.590Z,1.20
2024-02-02T10:48:32.384Z,1.17
2024-02-02T10:51:43.588Z,1.02
2024-02-02T10:54:34.576Z,0.98
2024-02-02T10:57:19.774Z,1.40
2024-02-02T11:00:08.495Z,0.80
2024-02-02T11:03:05.470Z,1.00
2024-02-02T11:05:39.660Z,1.10
2024-02-02T11:08:12.718Z,1.25
2024-02-02T11:11:02.513Z,1.10
2024-02-02T11:13:51.168Z,1.23
2024-02-02T11:16:36.341Z,1.10
2024-02-02T11:19:34.947Z,0.77
2024-02-02T11:22:24.192Z,0.60
2024-02-02T11:25:10.797Z,1.30
2024-02-02T11:27:51.121Z,0.73
2024-02-02T11:30:47.942Z,0.98
2024-02-02T11:33:28.359Z,1.15
2024-02-02T11:36:13.182Z,0.90
2024-02-02T11:39:08.757Z,0.93
2024-02-02T11:41:39.148Z,1.73
2024-02-02T11:44:06.500Z,1.10
2024-02-02T11:46:34.341Z,1.10
2024-02-02T11:49:10.199Z,1.40
2024-02-02T11:51:38.798Z,0.95
2024-02-02T11:54:28.073Z,0.85
2024-02-02T11:56:56.683Z,1.58
2024-02-02T11:59:42.044Z,1.30
2024-02-02T12:02:17.773Z,0.93
2024-02-02T12:04:53.466Z,1.50
2024-02-02T12:07:29.323Z,0.90
2024-02-02T12:10:02.150Z,1.05
2024-02-02T12:12:37.555Z,0.90
2024-02-02T12:15:05.875Z,1.20
2024-02-02T12:17:32.584Z,1.00
2024-02-02T12:19:59.625Z,0.88
2024-02-02T12:24:54.012Z,0.77
2024-02-02T12:27:20.712Z,1.00
2024-02-02T12:29:47.920Z,0.82
2024-02-02T12:32:14.669Z,0.88
2024-02-02T12:34:41.632Z,0.90
2024-02-02T12:37:08.774Z,0.50
2024-02-02T12:39:38.670Z,0.98
2024-02-02T12:42:07.269Z,0.75
2024-02-02T12:44:34.243Z,0.45
2024-02-02T12:47:01.310Z,1.00
2024-02-02T12:49:28.692Z,0.38
2024-02-02T12:51:57.678Z,0.60
2024-02-02T12:54:24.696Z,0.40
2024-02-02T12:56:52.021Z,0.60
2024-02-02T12:59:19.841Z,0.40
2024-02-02T13:01:49.313Z,0.45
2024-02-02T13:04:18.107Z,0.17
2024-02-02T13:06:46.535Z,0.55
2024-02-02T13:09:19.534Z,0.65
2024-02-02T13:11:49.885Z,0.30
2024-02-02T13:14:37.848Z,0.50
2024-02-02T13:17:13.835Z,0.30
2024-02-02T13:19:47.033Z,0.85
2024-02-02T13:22:28.074Z,0.60
2024-02-02T13:24:58.251Z,0.52
2024-02-02T13:27:33.632Z,0.40
2024-02-02T13:30:03.488Z,0.40
2024-02-02T13:32:34.817Z,0.25
2024-02-02T13:35:02.056Z,0.50
2024-02-02T13:40:10.729Z,0.10
2024-02-02T13:42:38.129Z,0.28
2024-02-02T13:45:13.159Z,0.20
2024-02-02T13:47:40.208Z,0.10
2024-02-02T13:50:13.547Z,0.52
2024-02-02T13:52:40.515Z,0.20
2024-02-02T13:55:07.641Z,0.38
2024-02-02T13:57:34.406Z,0.00
2024-02-02T14:00:01.299Z,0.10
2024-02-02T14:02:28.245Z,0.10
2024-02-02T14:04:58.355Z,0.17
2024-02-02T14:07:25.058Z,0.10
2024-02-02T14:10:02.676Z,0.10
2024-02-02T14:12:29.447Z,0.10
2024-02-02T14:14:56.461Z,0.20
2024-02-02T14:17:24.043Z,0.10
2024-02-02T14:20:03.046Z,0.20
2024-02-02T14:22:30.148Z,0.20
2024-02-02T14:24:57.412Z,0.20
2024-02-02T14:27:38.872Z,0.10
2024-02-02T14:30:09.805Z,0.40
2024-02-02T14:32:36.920Z,0.15
2024-02-02T14:35:05.853Z,0.63
2024-02-02T14:37:33.703Z,0.40
2024-02-02T14:40:01.641Z,0.20
2024-02-02T14:42:31.536Z,0.45
2024-02-02T14:45:00.032Z,0.15
2024-02-02T14:47:27.875Z,0.22
2024-02-02T14:49:54.762Z,0.40
2024-02-02T14:52:21.836Z,0.40
2024-02-02T14:54:48.522Z,0.00
2024-02-02T14:57:18.504Z,0.10
2024-02-02T14:59:51.215Z,0.22
2024-02-02T15:02:18.202Z,0.17
2024-02-02T15:04:45.723Z,0.10
2024-02-02T15:07:12.997Z,0.20
2024-02-02T15:09:42.439Z,0.03
2024-02-02T15:12:09.804Z,0.00
2024-02-02T15:17:03.791Z,0.00
2024-02-02T15:19:30.579Z,0.00
2024-02-02T15:21:57.338Z,0.00
2024-02-02T15:24:24.299Z,0.00
2024-02-02T15:26:51.117Z,0.10
2024-02-02T15:29:17.767Z,0.17
2024-02-02T15:31:44.402Z,0.08
2024-02-02T15:34:11.190Z,0.00
2024-02-02T15:36:38.020Z,0.15
2024-02-02T15:39:19.535Z,0.08
2024-02-02T15:41:54.052Z,0.00
2024-02-02T15:44:21.001Z,0.10
2024-02-02T15:46:47.658Z,0.03
2024-02-02T15:49:14.496Z,0.40
2024-02-02T15:51:41.480Z,0.17
2024-02-02T15:54:08.753Z,0.05
2024-02-02T15:56:35.438Z,0.10
2024-02-02T15:59:02.788Z,0.00
2024-02-02T16:01:29.594Z,0.17
2024-02-02T16:03:56.524Z,0.03
2024-02-02T16:06:23.414Z,0.10
2024-02-02T16:08:50.228Z,0.10
2024-02-02T16:11:17.491Z,0.20
2024-02-02T16:13:47.090Z,0.10
2024-02-02T16:16:13.791Z,0.10
2024-02-02T16:18:40.581Z,0.20
2024-02-02T16:21:07.340Z,0.30
2024-02-02T16:23:34.010Z,0.10
2024-02-02T16:26:00.835Z,0.13
2024-02-02T16:28:27.571Z,0.13
2024-02-02T16:30:54.371Z,0.20
2024-02-02T16:33:23.569Z,0.00
2024-02-02T16:35:50.507Z,0.10
2024-02-02T16:38:17.212Z,0.20
2024-02-02T16:40:43.959Z,0.00
2024-02-02T16:43:10.757Z,0.10
2024-02-02T16:45:37.490Z,0.00
2024-02-02T16:48:04.666Z,0.00
2024-02-02T16:50:31.647Z,0.20
2024-02-02T16:52:58.489Z,0.10
2024-02-02T16:55:25.252Z,0.03
2024-02-02T16:57:52.949Z,0.10
2024-02-02T17:00:20.354Z,0.20
2024-02-02T17:02:47.171Z,1.10
2024-02-02T17:05:13.845Z,0.47
2024-02-02T17:07:40.837Z,0.13
2024-02-02T17:10:07.914Z,0.20
2024-02-02T17:12:35.679Z,0.10
2024-02-02T17:15:04.316Z,0.00
2024-02-02T17:17:31.234Z,0.10
2024-02-02T17:19:58.151Z,0.10
2024-02-02T17:22:24.899Z,0.03
2024-02-02T17:24:51.708Z,0.00
2024-02-02T17:27:18.524Z,0.00
2024-02-02T17:29:45.290Z,0.00
2024-02-02T17:32:15.473Z,0.10
2024-02-02T17:34:50.325Z,0.10
2024-02-02T17:37:17.147Z,0.17
2024-02-02T17:39:44.018Z,0.00
2024-02-02T17:42:10.928Z,0.05
2024-02-02T17:44:37.601Z,0.32
2024-02-02T17:47:04.510Z,0.00
2024-02-02T17:49:41.088Z,0.10
2024-02-02T17:52:13.007Z,0.00
2024-02-02T17:54:39.956Z,0.17
2024-02-02T17:57:07.470Z,0.10
2024-02-02T17:59:34.346Z,0.10
2024-02-02T18:02:02.449Z,0.10
2024-02-02T18:04:29.701Z,0.10
2024-02-02T18:06:56.534Z,0.10
2024-02-02T18:09:23.398Z,0.10
2024-02-02T18:11:50.228Z,0.17
2024-02-02T18:14:20.695Z,0.00
2024-02-02T18:16:47.744Z,0.00
2024-02-02T18:19:14.522Z,0.10
2024-02-02T18:21:41.435Z,0.30
2024-02-02T18:24:09.671Z,0.10
2024-02-02T18:26:38.063Z,0.00
2024-02-02T18:29:05.102Z,0.00
2024-02-02T18:31:31.865Z,0.10
2024-02-02T18:33:58.633Z,0.17
2024-02-02T18:36:25.422Z,0.30
2024-02-02T18:38:52.247Z,0.08
2024-02-02T18:41:18.892Z,0.20
2024-02-02T18:43:45.551Z,0.20
2024-02-02T18:46:12.193Z,0.20
2024-02-02T18:48:40.536Z,0.10
2024-02-02T18:51:15.478Z,0.10
2024-02-02T18:53:42.127Z,0.00
2024-02-02T18:56:13.296Z,0.17
2024-02-02T18:58:46.043Z,0.00
2024-02-02T19:01:33.769Z,0.13
2024-02-02T19:04:00.929Z,0.08
2024-02-02T19:08:54.942Z,0.10
2024-02-02T19:11:22.463Z,0.00
2024-02-02T19:13:49.188Z,0.10
2024-02-02T19:16:23.621Z,0.22
2024-02-02T19:18:51.434Z,0.20
2024-02-02T19:21:26.619Z,0.00
2024-02-02T19:23:54.280Z,0.10
2024-02-02T19:26:21.559Z,0.08
2024-02-02T19:28:48.226Z,0.03
2024-02-02T19:31:22.628Z,0.00
2024-02-02T19:33:50.448Z,0.10
2024-02-02T19:36:28.866Z,0.10
2024-02-02T19:38:59.476Z,0.20
2024-02-02T19:41:29.632Z,0.15
2024-02-02T19:43:57.164Z,0.10
2024-02-02T19:46:27.542Z,0.10
2024-02-02T19:48:55.996Z,0.00
2024-02-02T19:51:24.669Z,0.20
2024-02-02T19:53:51.812Z,0.20
2024-02-02T19:56:21.891Z,0.10
2024-02-02T19:58:50.592Z,0.20
2024-02-02T20:01:19.805Z,0.28
2024-02-02T20:03:48.442Z,0.28
2024-02-02T20:06:17.521Z,0.10
2024-02-02T20:08:45.945Z,0.17
2024-02-02T20:11:17.002Z,0.32
2024-02-02T20:13:44.069Z,0.30
2024-02-02T20:16:15.065Z,0.20
2024-02-02T20:18:42.170Z,0.13
2024-02-02T20:23:37.680Z,0.43
2024-02-02T20:26:05.267Z,0.20
2024-02-02T20:28:32.282Z,0.13
2024-02-02T20:30:59.042Z,0.00
2024-02-02T20:33:26.115Z,0.20
2024-02-02T20:38:19.416Z,0.28
2024-02-02T20:40:46.079Z,0.20
2024-02-02T20:43:12.789Z,0.00
2024-02-02T20:45:39.509Z,0.10
2024-02-02T20:48:06.534Z,0.17
2024-02-02T20:50:33.284Z,0.10
2024-02-02T20:52:59.985Z,0.15
2024-02-02T20:55:26.675Z,0.90
2024-02-02T20:57:53.428Z,1.50
2024-02-02T21:00:20.333Z,0.35
2024-02-02T21:02:47.069Z,0.10
2024-02-02T21:05:13.968Z,0.43
2024-02-02T21:07:40.814Z,0.10
2024-02-02T21:10:07.769Z,0.08
2024-02-02T21:12:34.931Z,0.40
2024-02-02T21:17:29.442Z,0.10
2024-02-02T21:19:58.116Z,0.03
2024-02-02T21:22:25.596Z,0.00
2024-02-02T21:24:52.406Z,0.10
2024-02-02T21:27:19.190Z,0.10
2024-02-02T21:29:45.885Z,0.00
2024-02-02T21:32:12.542Z,0.20
2024-02-02T21:34:39.343Z,0.13
2024-02-02T21:37:06.148Z,0.10
2024-02-02T21:39:32.955Z,0.10
2024-02-02T21:41:59.633Z,0.00
2024-02-02T21:44:26.262Z,0.35
2024-02-02T21:46:52.949Z,0.20
2024-02-02T21:49:19.691Z,0.00
2024-02-02T21:51:46.500Z,0.15
2024-02-02T21:54:13.545Z,0.08
2024-02-02T21:56:43.457Z,0.17
2024-02-02T21:59:10.429Z,0.20
2024-02-02T22:01:39.011Z,0.00
2024-02-02T22:04:06.133Z,0.17
2024-02-02T22:06:33.377Z,0.00
2024-02-02T22:09:03.205Z,0.20
2024-02-02T22:11:29.905Z,0.00
2024-02-02T22:13:56.592Z,0.15
2024-02-02T22:16:23.220Z,0.20
2024-02-02T22:18:50.264Z,0.47
2024-02-02T22:23:52.659Z,0.10
2024-02-02T22:26:20.582Z,0.10
2024-02-02T22:28:48.319Z,0.28
2024-02-02T22:31:21.877Z,0.22
2024-02-02T22:36:25.709Z,0.10
2024-02-02T22:38:55.650Z,0.10
2024-02-02T22:41:33.106Z,0.10
2024-02-02T22:44:01.692Z,0.10
2024-02-02T22:46:32.157Z,0.10
2024-02-02T22:48:59.052Z,0.15
2024-02-02T22:51:25.899Z,0.00
2024-02-02T22:53:52.677Z,0.00
2024-02-02T22:56:19.305Z,0.00
2024-02-02T22:58:46.030Z,0.20
2024-02-02T23:01:13.136Z,0.10
2024-02-02T23:06:07.286Z,0.05
2024-02-02T23:08:34.007Z,0.22
2024-02-02T23:11:00.664Z,0.00
2024-02-02T23:13:27.332Z,0.05
2024-02-02T23:15:55.051Z,0.10
2024-02-02T23:18:22.969Z,0.00
2024-02-02T23:20:49.834Z,0.10
2024-02-02T23:23:20.168Z,0.00
2024-02-02T23:25:46.970Z,0.10
2024-02-02T23:28:13.917Z,0.00
2024-02-02T23:30:41.200Z,0.10
2024-02-02T23:35:34.841Z,0.00
2024-02-02T23:38:01.665Z,0.10
2024-02-02T23:40:28.862Z,0.00
2024-02-02T23:42:55.575Z,0.20
2024-02-02T23:45:22.784Z,0.20
2024-02-02T23:47:49.527Z,0.00
2024-02-02T23:50:16.415Z,0.00
2024-02-02T23:52:43.116Z,0.00
2024-02-02T23:55:10.696Z,0.03
2024-02-02T23:57:38.141Z,0.10
